sensor_id;sensor_type;location;lat;lon;timestamp;P1;durP1;ratioP1;P2;durP2;ratioP2
34920;SDS011;21128;50.016;20.002;2023-08-24T00:01:57;7.30;;;5.50;;
34920;SDS011;21128;50.016;20.002;2023-08-24T00:04:24;8.50;;;5.20;;
34920;SDS011;21128;50.016;20.002;2023-08-24T00:06:50;10.20;;;5.70;;
34920;SDS011;21128;50.016;20.002;2023-08-24T00:09:18;7.20;;;4.90;;
34920;SDS011;21128;50.016;20.002;2023-08-24T00:11:45;7.70;;;5.00;;
34920;SDS011;21128;50.016;20.002;2023-08-24T00:14:12;9.10;;;5.20;;
34920;SDS011;21128;50.016;20.002;2023-08-24T00:16:39;7.20;;;4.90;;
34920;SDS011;21128;50.016;20.002;2023-08-24T00:19:07;9.10;;;4.90;;
34920;SDS011;21128;50.016;20.002;2023-08-24T00:21:34;9.10;;;5.00;;
34920;SDS011;21128;50.016;20.002;2023-08-24T00:24:00;10.20;;;5.00;;
34920;SDS011;21128;50.016;20.002;2023-08-24T00:26:27;6.90;;;5.30;;
34920;SDS011;21128;50.016;20.002;2023-08-24T00:28:54;8.70;;;5.00;;
34920;SDS011;21128;50.016;20.002;2023-08-24T00:31:21;10.20;;;4.90;;
34920;SDS011;21128;50.016;20.002;2023-08-24T00:33:48;8.90;;;4.60;;
34920;SDS011;21128;50.016;20.002;2023-08-24T00:36:17;8.40;;;5.70;;
34920;SDS011;21128;50.016;20.002;2023-08-24T00:38:48;10.80;;;5.00;;
34920;SDS011;21128;50.016;20.002;2023-08-24T00:41:18;8.00;;;5.30;;
34920;SDS011;21128;50.016;20.002;2023-08-24T00:43:44;9.00;;;5.20;;
34920;SDS011;21128;50.016;20.002;2023-08-24T00:46:11;10.10;;;5.50;;
34920;SDS011;21128;50.016;20.002;2023-08-24T00:48:39;11.30;;;5.30;;
34920;SDS011;21128;50.016;20.002;2023-08-24T00:51:06;8.50;;;5.30;;
34920;SDS011;21128;50.016;20.002;2023-08-24T00:53:33;6.80;;;5.40;;
34920;SDS011;21128;50.016;20.002;2023-08-24T00:56:01;11.20;;;5.30;;
34920;SDS011;21128;50.016;20.002;2023-08-24T00:58:29;12.20;;;5.50;;
34920;SDS011;21128;50.016;20.002;2023-08-24T01:00:57;13.80;;;5.40;;
34920;SDS011;21128;50.016;20.002;2023-08-24T01:03:24;9.50;;;5.90;;
34920;SDS011;21128;50.016;20.002;2023-08-24T01:05:51;12.00;;;4.90;;
34920;SDS011;21128;50.016;20.002;2023-08-24T01:08:19;18.90;;;5.70;;
34920;SDS011;21128;50.016;20.002;2023-08-24T01:11:32;12.90;;;5.10;;
34920;SDS011;21128;50.016;20.002;2023-08-24T01:16:42;9.80;;;5.20;;
34920;SDS011;21128;50.016;20.002;2023-08-24T01:19:23;7.10;;;5.10;;
34920;SDS011;21128;50.016;20.002;2023-08-24T01:21:52;9.60;;;4.60;;
34920;SDS011;21128;50.016;20.002;2023-08-24T01:24:35;7.80;;;4.70;;
34920;SDS011;21128;50.016;20.002;2023-08-24T01:27:06;9.70;;;5.60;;
34920;SDS011;21128;50.016;20.002;2023-08-24T01:29:34;12.00;;;5.40;;
34920;SDS011;21128;50.016;20.002;2023-08-24T01:32:01;13.60;;;5.00;;
34920;SDS011;21128;50.016;20.002;2023-08-24T01:34:29;13.00;;;5.70;;
34920;SDS011;21128;50.016;20.002;2023-08-24T01:36:56;12.50;;;5.20;;
34920;SDS011;21128;50.016;20.002;2023-08-24T01:39:29;8.90;;;4.90;;
34920;SDS011;21128;50.016;20.002;2023-08-24T01:42:02;11.90;;;4.90;;
34920;SDS011;21128;50.016;20.002;2023-08-24T01:44:33;13.60;;;5.50;;
34920;SDS011;21128;50.016;20.002;2023-08-24T01:47:04;14.20;;;6.30;;
34920;SDS011;21128;50.016;20.002;2023-08-24T01:49:32;8.60;;;5.40;;
34920;SDS011;21128;50.016;20.002;2023-08-24T01:52:01;10.40;;;5.20;;
34920;SDS011;21128;50.016;20.002;2023-08-24T01:54:30;12.70;;;5.30;;
34920;SDS011;21128;50.016;20.002;2023-08-24T01:56:58;8.80;;;5.40;;
34920;SDS011;21128;50.016;20.002;2023-08-24T01:59:24;10.40;;;5.00;;
34920;SDS011;21128;50.016;20.002;2023-08-24T02:01:51;7.80;;;5.00;;
34920;SDS011;21128;50.016;20.002;2023-08-24T02:04:18;8.30;;;4.90;;
34920;SDS011;21128;50.016;20.002;2023-08-24T02:06:45;8.80;;;4.50;;
34920;SDS011;21128;50.016;20.002;2023-08-24T02:09:11;11.00;;;5.10;;
34920;SDS011;21128;50.016;20.002;2023-08-24T02:11:38;9.20;;;5.10;;
34920;SDS011;21128;50.016;20.002;2023-08-24T02:14:05;10.10;;;5.00;;
34920;SDS011;21128;50.016;20.002;2023-08-24T02:16:32;9.50;;;5.50;;
34920;SDS011;21128;50.016;20.002;2023-08-24T02:18:59;12.40;;;5.30;;
34920;SDS011;21128;50.016;20.002;2023-08-24T02:21:26;7.80;;;5.20;;
34920;SDS011;21128;50.016;20.002;2023-08-24T02:23:53;11.90;;;5.00;;
34920;SDS011;21128;50.016;20.002;2023-08-24T02:26:20;12.00;;;5.50;;
34920;SDS011;21128;50.016;20.002;2023-08-24T02:28:47;7.80;;;4.70;;
34920;SDS011;21128;50.016;20.002;2023-08-24T02:31:14;8.50;;;4.70;;
34920;SDS011;21128;50.016;20.002;2023-08-24T02:33:42;10.70;;;5.40;;
34920;SDS011;21128;50.016;20.002;2023-08-24T02:36:09;10.10;;;4.60;;
34920;SDS011;21128;50.016;20.002;2023-08-24T02:38:36;10.50;;;5.30;;
34920;SDS011;21128;50.016;20.002;2023-08-24T02:41:03;9.60;;;4.90;;
34920;SDS011;21128;50.016;20.002;2023-08-24T02:43:31;8.10;;;5.10;;
34920;SDS011;21128;50.016;20.002;2023-08-24T02:48:30;7.80;;;5.10;;
34920;SDS011;21128;50.016;20.002;2023-08-24T02:50:57;8.70;;;5.20;;
34920;SDS011;21128;50.016;20.002;2023-08-24T02:53:25;10.20;;;5.80;;
34920;SDS011;21128;50.016;20.002;2023-08-24T02:55:53;8.60;;;5.10;;
34920;SDS011;21128;50.016;20.002;2023-08-24T02:58:21;14.90;;;5.70;;
34920;SDS011;21128;50.016;20.002;2023-08-24T03:00:48;11.50;;;5.50;;
34920;SDS011;21128;50.016;20.002;2023-08-24T03:03:15;9.90;;;6.00;;
34920;SDS011;21128;50.016;20.002;2023-08-24T03:05:58;11.30;;;6.50;;
34920;SDS011;21128;50.016;20.002;2023-08-24T03:08:27;12.00;;;6.50;;
34920;SDS011;21128;50.016;20.002;2023-08-24T03:10:54;8.40;;;5.20;;
34920;SDS011;21128;50.016;20.002;2023-08-24T03:13:21;15.10;;;6.80;;
34920;SDS011;21128;50.016;20.002;2023-08-24T03:15:48;11.00;;;6.50;;
34920;SDS011;21128;50.016;20.002;2023-08-24T03:18:16;12.20;;;7.00;;
34920;SDS011;21128;50.016;20.002;2023-08-24T03:20:43;12.60;;;8.60;;
34920;SDS011;21128;50.016;20.002;2023-08-24T03:23:11;12.20;;;8.10;;
34920;SDS011;21128;50.016;20.002;2023-08-24T03:25:39;11.10;;;7.70;;
34920;SDS011;21128;50.016;20.002;2023-08-24T03:28:08;20.60;;;8.20;;
34920;SDS011;21128;50.016;20.002;2023-08-24T03:30:36;12.70;;;8.70;;
34920;SDS011;21128;50.016;20.002;2023-08-24T03:33:04;15.10;;;10.30;;
34920;SDS011;21128;50.016;20.002;2023-08-24T03:35:32;16.60;;;11.40;;
34920;SDS011;21128;50.016;20.002;2023-08-24T03:37:59;14.60;;;11.50;;
34920;SDS011;21128;50.016;20.002;2023-08-24T03:40:27;22.70;;;12.10;;
34920;SDS011;21128;50.016;20.002;2023-08-24T03:42:54;16.90;;;12.10;;
34920;SDS011;21128;50.016;20.002;2023-08-24T03:45:21;15.20;;;11.00;;
34920;SDS011;21128;50.016;20.002;2023-08-24T03:47:48;17.40;;;11.10;;
34920;SDS011;21128;50.016;20.002;2023-08-24T03:50:15;17.10;;;10.40;;
34920;SDS011;21128;50.016;20.002;2023-08-24T03:52:43;15.70;;;10.70;;
34920;SDS011;21128;50.016;20.002;2023-08-24T03:55:10;18.00;;;11.10;;
34920;SDS011;21128;50.016;20.002;2023-08-24T03:57:37;15.70;;;11.20;;
34920;SDS011;21128;50.016;20.002;2023-08-24T04:00:06;14.20;;;9.80;;
34920;SDS011;21128;50.016;20.002;2023-08-24T04:02:38;13.10;;;9.50;;
34920;SDS011;21128;50.016;20.002;2023-08-24T04:05:05;14.70;;;9.10;;
34920;SDS011;21128;50.016;20.002;2023-08-24T04:07:32;16.40;;;9.70;;
34920;SDS011;21128;50.016;20.002;2023-08-24T04:10:03;13.80;;;9.10;;
34920;SDS011;21128;50.016;20.002;2023-08-24T04:12:31;14.80;;;9.60;;
34920;SDS011;21128;50.016;20.002;2023-08-24T04:14:58;15.30;;;10.70;;
34920;SDS011;21128;50.016;20.002;2023-08-24T04:17:25;15.20;;;11.90;;
34920;SDS011;21128;50.016;20.002;2023-08-24T04:19:52;15.90;;;11.50;;
34920;SDS011;21128;50.016;20.002;2023-08-24T04:22:19;22.30;;;15.10;;
34920;SDS011;21128;50.016;20.002;2023-08-24T04:24:46;19.30;;;12.90;;
34920;SDS011;21128;50.016;20.002;2023-08-24T04:27:13;16.80;;;12.60;;
34920;SDS011;21128;50.016;20.002;2023-08-24T04:29:39;20.30;;;13.60;;
34920;SDS011;21128;50.016;20.002;2023-08-24T04:32:06;16.90;;;13.10;;
34920;SDS011;21128;50.016;20.002;2023-08-24T04:34:34;21.20;;;15.60;;
34920;SDS011;21128;50.016;20.002;2023-08-24T04:37:01;21.70;;;15.70;;
34920;SDS011;21128;50.016;20.002;2023-08-24T04:39:29;25.20;;;16.50;;
34920;SDS011;21128;50.016;20.002;2023-08-24T04:41:57;22.50;;;15.10;;
34920;SDS011;21128;50.016;20.002;2023-08-24T04:44:24;20.70;;;16.10;;
34920;SDS011;21128;50.016;20.002;2023-08-24T04:46:53;22.90;;;16.30;;
34920;SDS011;21128;50.016;20.002;2023-08-24T04:49:20;20.70;;;15.90;;
34920;SDS011;21128;50.016;20.002;2023-08-24T04:51:47;19.40;;;14.80;;
34920;SDS011;21128;50.016;20.002;2023-08-24T04:54:14;21.60;;;15.50;;
34920;SDS011;21128;50.016;20.002;2023-08-24T04:56:41;18.70;;;14.70;;
34920;SDS011;21128;50.016;20.002;2023-08-24T04:59:07;21.10;;;15.30;;
34920;SDS011;21128;50.016;20.002;2023-08-24T05:01:34;21.10;;;14.90;;
34920;SDS011;21128;50.016;20.002;2023-08-24T05:04:01;19.60;;;14.20;;
34920;SDS011;21128;50.016;20.002;2023-08-24T05:06:28;15.60;;;13.50;;
34920;SDS011;21128;50.016;20.002;2023-08-24T05:08:55;16.80;;;14.30;;
34920;SDS011;21128;50.016;20.002;2023-08-24T05:11:22;17.90;;;13.80;;
34920;SDS011;21128;50.016;20.002;2023-08-24T05:13:53;16.10;;;14.10;;
34920;SDS011;21128;50.016;20.002;2023-08-24T05:16:19;20.90;;;14.50;;
34920;SDS011;21128;50.016;20.002;2023-08-24T05:18:46;16.70;;;14.50;;
34920;SDS011;21128;50.016;20.002;2023-08-24T05:21:13;19.60;;;14.80;;
34920;SDS011;21128;50.016;20.002;2023-08-24T05:23:40;20.50;;;14.60;;
34920;SDS011;21128;50.016;20.002;2023-08-24T05:26:07;19.40;;;13.50;;
34920;SDS011;21128;50.016;20.002;2023-08-24T05:28:34;18.90;;;12.90;;
34920;SDS011;21128;50.016;20.002;2023-08-24T05:31:00;20.40;;;13.10;;
34920;SDS011;21128;50.016;20.002;2023-08-24T05:33:27;17.50;;;13.10;;
34920;SDS011;21128;50.016;20.002;2023-08-24T05:35:57;19.70;;;12.20;;
34920;SDS011;21128;50.016;20.002;2023-08-24T05:38:25;23.70;;;12.80;;
34920;SDS011;21128;50.016;20.002;2023-08-24T05:40:52;18.10;;;13.50;;
34920;SDS011;21128;50.016;20.002;2023-08-24T05:43:18;18.10;;;13.70;;
34920;SDS011;21128;50.016;20.002;2023-08-24T05:45:45;23.90;;;14.50;;
34920;SDS011;21128;50.016;20.002;2023-08-24T05:48:13;23.10;;;13.80;;
34920;SDS011;21128;50.016;20.002;2023-08-24T05:50:46;19.20;;;14.20;;
34920;SDS011;21128;50.016;20.002;2023-08-24T05:53:13;24.70;;;14.50;;
34920;SDS011;21128;50.016;20.002;2023-08-24T05:55:40;21.40;;;15.00;;
34920;SDS011;21128;50.016;20.002;2023-08-24T05:58:07;22.80;;;13.40;;
34920;SDS011;21128;50.016;20.002;2023-08-24T06:00:34;17.50;;;13.10;;
34920;SDS011;21128;50.016;20.002;2023-08-24T06:03:01;18.90;;;13.80;;
34920;SDS011;21128;50.016;20.002;2023-08-24T06:05:30;17.00;;;13.30;;
34920;SDS011;21128;50.016;20.002;2023-08-24T06:07:57;22.00;;;15.70;;
34920;SDS011;21128;50.016;20.002;2023-08-24T06:10:25;22.40;;;16.60;;
34920;SDS011;21128;50.016;20.002;2023-08-24T06:12:53;22.40;;;15.40;;
34920;SDS011;21128;50.016;20.002;2023-08-24T06:15:20;22.10;;;15.80;;
34920;SDS011;21128;50.016;20.002;2023-08-24T06:17:50;27.30;;;17.90;;
34920;SDS011;21128;50.016;20.002;2023-08-24T06:20:17;26.40;;;17.80;;
34920;SDS011;21128;50.016;20.002;2023-08-24T06:22:44;25.40;;;18.00;;
34920;SDS011;21128;50.016;20.002;2023-08-24T06:25:11;24.90;;;17.50;;
34920;SDS011;21128;50.016;20.002;2023-08-24T06:27:38;30.70;;;16.00;;
34920;SDS011;21128;50.016;20.002;2023-08-24T06:30:05;30.20;;;17.00;;
34920;SDS011;21128;50.016;20.002;2023-08-24T06:32:33;23.50;;;15.90;;
34920;SDS011;21128;50.016;20.002;2023-08-24T06:35:00;23.50;;;15.90;;
34920;SDS011;21128;50.016;20.002;2023-08-24T06:37:27;23.60;;;15.90;;
34920;SDS011;21128;50.016;20.002;2023-08-24T06:39:53;19.50;;;14.20;;
34920;SDS011;21128;50.016;20.002;2023-08-24T06:42:20;26.70;;;14.00;;
34920;SDS011;21128;50.016;20.002;2023-08-24T06:44:47;25.30;;;15.50;;
34920;SDS011;21128;50.016;20.002;2023-08-24T06:47:17;21.20;;;14.10;;
34920;SDS011;21128;50.016;20.002;2023-08-24T06:49:44;19.60;;;13.90;;
34920;SDS011;21128;50.016;20.002;2023-08-24T06:52:11;23.60;;;13.50;;
34920;SDS011;21128;50.016;20.002;2023-08-24T06:54:37;21.00;;;13.30;;
34920;SDS011;21128;50.016;20.002;2023-08-24T06:57:04;20.40;;;13.40;;
34920;SDS011;21128;50.016;20.002;2023-08-24T06:59:31;21.80;;;12.30;;
34920;SDS011;21128;50.016;20.002;2023-08-24T07:01:58;18.90;;;13.40;;
34920;SDS011;21128;50.016;20.002;2023-08-24T07:04:26;25.20;;;14.40;;
34920;SDS011;21128;50.016;20.002;2023-08-24T07:06:54;18.90;;;13.50;;
34920;SDS011;21128;50.016;20.002;2023-08-24T07:09:20;19.10;;;12.90;;
34920;SDS011;21128;50.016;20.002;2023-08-24T07:11:48;22.40;;;13.10;;
34920;SDS011;21128;50.016;20.002;2023-08-24T07:14:15;21.90;;;13.30;;
34920;SDS011;21128;50.016;20.002;2023-08-24T07:16:41;20.40;;;11.50;;
34920;SDS011;21128;50.016;20.002;2023-08-24T07:19:09;22.20;;;10.90;;
34920;SDS011;21128;50.016;20.002;2023-08-24T07:21:35;16.10;;;11.40;;
34920;SDS011;21128;50.016;20.002;2023-08-24T07:24:03;24.50;;;12.30;;
34920;SDS011;21128;50.016;20.002;2023-08-24T07:26:30;23.70;;;11.70;;
34920;SDS011;21128;50.016;20.002;2023-08-24T07:28:57;19.40;;;12.00;;
34920;SDS011;21128;50.016;20.002;2023-08-24T07:31:24;14.80;;;11.10;;
34920;SDS011;21128;50.016;20.002;2023-08-24T07:33:51;22.90;;;11.20;;
34920;SDS011;21128;50.016;20.002;2023-08-24T07:36:18;17.50;;;10.60;;
34920;SDS011;21128;50.016;20.002;2023-08-24T07:38:45;16.80;;;10.70;;
34920;SDS011;21128;50.016;20.002;2023-08-24T07:41:15;13.80;;;10.20;;
34920;SDS011;21128;50.016;20.002;2023-08-24T07:43:44;17.80;;;11.00;;
34920;SDS011;21128;50.016;20.002;2023-08-24T07:46:11;18.30;;;11.30;;
34920;SDS011;21128;50.016;20.002;2023-08-24T07:48:38;20.80;;;10.70;;
34920;SDS011;21128;50.016;20.002;2023-08-24T07:51:05;21.80;;;10.50;;
34920;SDS011;21128;50.016;20.002;2023-08-24T07:53:33;21.30;;;10.30;;
34920;SDS011;21128;50.016;20.002;2023-08-24T07:56:00;20.50;;;10.60;;
34920;SDS011;21128;50.016;20.002;2023-08-24T07:58:28;15.30;;;9.90;;
34920;SDS011;21128;50.016;20.002;2023-08-24T08:00:55;15.30;;;9.30;;
34920;SDS011;21128;50.016;20.002;2023-08-24T08:03:22;13.50;;;8.80;;
34920;SDS011;21128;50.016;20.002;2023-08-24T08:05:49;16.80;;;9.80;;
34920;SDS011;21128;50.016;20.002;2023-08-24T08:08:15;18.80;;;9.90;;
34920;SDS011;21128;50.016;20.002;2023-08-24T08:10:42;16.20;;;9.40;;
34920;SDS011;21128;50.016;20.002;2023-08-24T08:13:09;16.10;;;9.40;;
34920;SDS011;21128;50.016;20.002;2023-08-24T08:15:39;16.00;;;8.40;;
34920;SDS011;21128;50.016;20.002;2023-08-24T08:18:06;18.10;;;9.80;;
34920;SDS011;21128;50.016;20.002;2023-08-24T08:20:33;13.40;;;8.60;;
34920;SDS011;21128;50.016;20.002;2023-08-24T08:23:00;15.80;;;8.80;;
34920;SDS011;21128;50.016;20.002;2023-08-24T08:25:27;20.90;;;9.10;;
34920;SDS011;21128;50.016;20.002;2023-08-24T08:27:55;11.00;;;7.60;;
34920;SDS011;21128;50.016;20.002;2023-08-24T08:30:21;15.60;;;8.90;;
34920;SDS011;21128;50.016;20.002;2023-08-24T08:32:48;13.30;;;8.40;;
34920;SDS011;21128;50.016;20.002;2023-08-24T08:35:18;19.20;;;8.00;;
34920;SDS011;21128;50.016;20.002;2023-08-24T08:37:45;12.50;;;7.80;;
34920;SDS011;21128;50.016;20.002;2023-08-24T08:40:12;16.20;;;8.00;;
34920;SDS011;21128;50.016;20.002;2023-08-24T08:42:40;13.90;;;7.10;;
34920;SDS011;21128;50.016;20.002;2023-08-24T08:45:09;16.30;;;7.50;;
34920;SDS011;21128;50.016;20.002;2023-08-24T08:47:38;11.70;;;6.70;;
34920;SDS011;21128;50.016;20.002;2023-08-24T08:50:07;17.20;;;7.30;;
34920;SDS011;21128;50.016;20.002;2023-08-24T08:52:35;13.50;;;7.20;;
34920;SDS011;21128;50.016;20.002;2023-08-24T08:55:02;13.10;;;7.00;;
34920;SDS011;21128;50.016;20.002;2023-08-24T08:57:32;11.80;;;6.00;;
34920;SDS011;21128;50.016;20.002;2023-08-24T09:00:00;14.80;;;6.50;;
34920;SDS011;21128;50.016;20.002;2023-08-24T09:02:28;17.20;;;5.90;;
34920;SDS011;21128;50.016;20.002;2023-08-24T09:04:57;10.60;;;4.90;;
34920;SDS011;21128;50.016;20.002;2023-08-24T09:07:24;10.60;;;5.90;;
34920;SDS011;21128;50.016;20.002;2023-08-24T09:09:51;11.80;;;5.20;;
34920;SDS011;21128;50.016;20.002;2023-08-24T09:12:18;8.70;;;5.70;;
34920;SDS011;21128;50.016;20.002;2023-08-24T09:14:45;15.10;;;5.70;;
34920;SDS011;21128;50.016;20.002;2023-08-24T09:17:19;9.40;;;5.40;;
34920;SDS011;21128;50.016;20.002;2023-08-24T09:19:52;9.20;;;4.80;;
34920;SDS011;21128;50.016;20.002;2023-08-24T09:22:24;9.60;;;4.80;;
34920;SDS011;21128;50.016;20.002;2023-08-24T09:24:51;12.60;;;5.60;;
34920;SDS011;21128;50.016;20.002;2023-08-24T09:27:19;12.80;;;5.10;;
34920;SDS011;21128;50.016;20.002;2023-08-24T09:29:49;9.30;;;4.80;;
34920;SDS011;21128;50.016;20.002;2023-08-24T09:32:22;8.50;;;4.40;;
34920;SDS011;21128;50.016;20.002;2023-08-24T09:34:50;8.40;;;4.90;;
34920;SDS011;21128;50.016;20.002;2023-08-24T09:37:17;12.40;;;4.30;;
34920;SDS011;21128;50.016;20.002;2023-08-24T09:39:45;9.10;;;4.50;;
34920;SDS011;21128;50.016;20.002;2023-08-24T09:42:12;12.40;;;4.50;;
34920;SDS011;21128;50.016;20.002;2023-08-24T09:44:43;15.70;;;4.30;;
34920;SDS011;21128;50.016;20.002;2023-08-24T09:47:13;11.30;;;5.00;;
34920;SDS011;21128;50.016;20.002;2023-08-24T09:49:40;7.60;;;3.70;;
34920;SDS011;21128;50.016;20.002;2023-08-24T09:52:08;7.00;;;3.80;;
34920;SDS011;21128;50.016;20.002;2023-08-24T09:54:36;10.30;;;4.40;;
34920;SDS011;21128;50.016;20.002;2023-08-24T09:57:05;9.60;;;4.20;;
34920;SDS011;21128;50.016;20.002;2023-08-24T09:59:34;8.00;;;3.90;;
34920;SDS011;21128;50.016;20.002;2023-08-24T10:02:04;4.30;;;3.20;;
34920;SDS011;21128;50.016;20.002;2023-08-24T10:04:41;7.40;;;4.20;;
34920;SDS011;21128;50.016;20.002;2023-08-24T10:07:11;8.40;;;4.30;;
34920;SDS011;21128;50.016;20.002;2023-08-24T10:09:52;15.40;;;4.00;;
34920;SDS011;21128;50.016;20.002;2023-08-24T10:12:31;13.40;;;4.30;;
34920;SDS011;21128;50.016;20.002;2023-08-24T10:15:03;8.40;;;3.20;;
34920;SDS011;21128;50.016;20.002;2023-08-24T10:17:33;7.50;;;3.50;;
34920;SDS011;21128;50.016;20.002;2023-08-24T10:20:02;12.00;;;3.30;;
34920;SDS011;21128;50.016;20.002;2023-08-24T10:22:33;5.70;;;3.30;;
34920;SDS011;21128;50.016;20.002;2023-08-24T10:25:02;7.20;;;3.50;;
34920;SDS011;21128;50.016;20.002;2023-08-24T10:27:30;7.40;;;2.80;;
34920;SDS011;21128;50.016;20.002;2023-08-24T10:29:57;5.80;;;2.90;;
34920;SDS011;21128;50.016;20.002;2023-08-24T10:32:25;5.80;;;2.70;;
34920;SDS011;21128;50.016;20.002;2023-08-24T10:34:53;6.50;;;2.80;;
34920;SDS011;21128;50.016;20.002;2023-08-24T10:37:26;5.00;;;2.50;;
34920;SDS011;21128;50.016;20.002;2023-08-24T10:39:54;5.00;;;2.50;;
34920;SDS011;21128;50.016;20.002;2023-08-24T10:42:21;6.60;;;3.00;;
34920;SDS011;21128;50.016;20.002;2023-08-24T10:44:48;6.30;;;2.90;;
34920;SDS011;21128;50.016;20.002;2023-08-24T10:47:22;11.00;;;2.60;;
34920;SDS011;21128;50.016;20.002;2023-08-24T10:49:57;4.00;;;2.20;;
34920;SDS011;21128;50.016;20.002;2023-08-24T10:54:56;7.60;;;2.50;;
34920;SDS011;21128;50.016;20.002;2023-08-24T10:57:24;6.50;;;2.30;;
34920;SDS011;21128;50.016;20.002;2023-08-24T10:59:59;5.30;;;2.10;;
34920;SDS011;21128;50.016;20.002;2023-08-24T11:02:45;11.90;;;2.40;;
34920;SDS011;21128;50.016;20.002;2023-08-24T11:05:19;3.70;;;1.90;;
34920;SDS011;21128;50.016;20.002;2023-08-24T11:07:48;2.80;;;2.10;;
34920;SDS011;21128;50.016;20.002;2023-08-24T11:10:16;3.60;;;1.90;;
34920;SDS011;21128;50.016;20.002;2023-08-24T11:15:40;6.50;;;2.40;;
34920;SDS011;21128;50.016;20.002;2023-08-24T11:20:43;2.40;;;1.90;;
34920;SDS011;21128;50.016;20.002;2023-08-24T11:23:11;4.70;;;1.90;;
34920;SDS011;21128;50.016;20.002;2023-08-24T11:25:39;6.10;;;2.20;;
34920;SDS011;21128;50.016;20.002;2023-08-24T11:28:06;8.80;;;2.40;;
34920;SDS011;21128;50.016;20.002;2023-08-24T11:30:34;6.40;;;2.60;;
34920;SDS011;21128;50.016;20.002;2023-08-24T11:33:02;6.20;;;1.90;;
34920;SDS011;21128;50.016;20.002;2023-08-24T11:35:30;6.50;;;2.30;;
34920;SDS011;21128;50.016;20.002;2023-08-24T11:38:02;7.80;;;3.20;;
34920;SDS011;21128;50.016;20.002;2023-08-24T11:40:30;10.20;;;3.50;;
34920;SDS011;21128;50.016;20.002;2023-08-24T11:42:57;6.10;;;3.90;;
34920;SDS011;21128;50.016;20.002;2023-08-24T11:45:24;10.20;;;3.90;;
34920;SDS011;21128;50.016;20.002;2023-08-24T11:47:59;8.00;;;3.50;;
34920;SDS011;21128;50.016;20.002;2023-08-24T11:50:33;8.80;;;3.20;;
34920;SDS011;21128;50.016;20.002;2023-08-24T11:53:03;10.40;;;3.30;;
34920;SDS011;21128;50.016;20.002;2023-08-24T11:55:33;7.30;;;4.00;;
34920;SDS011;21128;50.016;20.002;2023-08-24T11:58:00;8.10;;;2.90;;
34920;SDS011;21128;50.016;20.002;2023-08-24T12:00:27;6.20;;;2.90;;
34920;SDS011;21128;50.016;20.002;2023-08-24T12:02:54;12.30;;;3.10;;
34920;SDS011;21128;50.016;20.002;2023-08-24T12:05:25;14.40;;;3.30;;
34920;SDS011;21128;50.016;20.002;2023-08-24T12:07:53;8.10;;;3.40;;
34920;SDS011;21128;50.016;20.002;2023-08-24T12:10:21;9.70;;;3.00;;
34920;SDS011;21128;50.016;20.002;2023-08-24T12:12:48;6.80;;;3.10;;
34920;SDS011;21128;50.016;20.002;2023-08-24T12:15:16;7.20;;;2.90;;
34920;SDS011;21128;50.016;20.002;2023-08-24T12:17:48;7.60;;;2.40;;
34920;SDS011;21128;50.016;20.002;2023-08-24T12:20:21;12.10;;;3.60;;
34920;SDS011;21128;50.016;20.002;2023-08-24T12:22:52;7.30;;;3.00;;
34920;SDS011;21128;50.016;20.002;2023-08-24T12:25:23;6.00;;;2.40;;
34920;SDS011;21128;50.016;20.002;2023-08-24T12:27:51;4.40;;;2.90;;
34920;SDS011;21128;50.016;20.002;2023-08-24T12:30:19;4.00;;;3.00;;
34920;SDS011;21128;50.016;20.002;2023-08-24T12:32:47;7.60;;;2.60;;
34920;SDS011;21128;50.016;20.002;2023-08-24T12:35:16;9.80;;;2.90;;
34920;SDS011;21128;50.016;20.002;2023-08-24T12:37:44;8.50;;;2.60;;
34920;SDS011;21128;50.016;20.002;2023-08-24T12:40:11;6.50;;;2.50;;
34920;SDS011;21128;50.016;20.002;2023-08-24T12:42:42;7.60;;;2.60;;
34920;SDS011;21128;50.016;20.002;2023-08-24T12:45:09;7.20;;;2.60;;
34920;SDS011;21128;50.016;20.002;2023-08-24T12:47:36;7.30;;;2.60;;
34920;SDS011;21128;50.016;20.002;2023-08-24T12:50:04;5.40;;;2.40;;
34920;SDS011;21128;50.016;20.002;2023-08-24T12:52:32;6.50;;;2.70;;
34920;SDS011;21128;50.016;20.002;2023-08-24T12:55:00;9.60;;;2.70;;
34920;SDS011;21128;50.016;20.002;2023-08-24T12:57:27;5.30;;;2.60;;
34920;SDS011;21128;50.016;20.002;2023-08-24T12:59:54;5.40;;;2.10;;
34920;SDS011;21128;50.016;20.002;2023-08-24T13:02:21;6.60;;;2.80;;
34920;SDS011;21128;50.016;20.002;2023-08-24T13:04:48;9.30;;;2.50;;
34920;SDS011;21128;50.016;20.002;2023-08-24T13:07:15;8.60;;;2.30;;
34920;SDS011;21128;50.016;20.002;2023-08-24T13:09:41;4.70;;;2.20;;
34920;SDS011;21128;50.016;20.002;2023-08-24T13:12:08;7.70;;;2.90;;
34920;SDS011;21128;50.016;20.002;2023-08-24T13:14:35;11.60;;;2.80;;
34920;SDS011;21128;50.016;20.002;2023-08-24T13:17:02;3.60;;;2.10;;
34920;SDS011;21128;50.016;20.002;2023-08-24T13:19:29;3.90;;;2.10;;
34920;SDS011;21128;50.016;20.002;2023-08-24T13:21:56;8.80;;;3.10;;
34920;SDS011;21128;50.016;20.002;2023-08-24T13:24:22;6.70;;;2.70;;
34920;SDS011;21128;50.016;20.002;2023-08-24T13:26:49;4.80;;;2.40;;
34920;SDS011;21128;50.016;20.002;2023-08-24T13:29:16;5.70;;;1.90;;
34920;SDS011;21128;50.016;20.002;2023-08-24T13:31:42;5.90;;;2.60;;
34920;SDS011;21128;50.016;20.002;2023-08-24T13:34:09;4.90;;;2.40;;
34920;SDS011;21128;50.016;20.002;2023-08-24T13:36:36;8.10;;;2.50;;
34920;SDS011;21128;50.016;20.002;2023-08-24T13:39:03;4.20;;;2.10;;
34920;SDS011;21128;50.016;20.002;2023-08-24T13:41:31;8.00;;;2.40;;
34920;SDS011;21128;50.016;20.002;2023-08-24T13:43:58;5.90;;;2.20;;
34920;SDS011;21128;50.016;20.002;2023-08-24T13:46:25;6.90;;;2.40;;
34920;SDS011;21128;50.016;20.002;2023-08-24T13:48:52;5.30;;;2.50;;
34920;SDS011;21128;50.016;20.002;2023-08-24T13:51:18;4.00;;;2.80;;
34920;SDS011;21128;50.016;20.002;2023-08-24T13:53:45;7.30;;;2.80;;
34920;SDS011;21128;50.016;20.002;2023-08-24T13:56:13;8.20;;;2.70;;
34920;SDS011;21128;50.016;20.002;2023-08-24T13:58:40;8.20;;;3.20;;
34920;SDS011;21128;50.016;20.002;2023-08-24T14:01:07;4.80;;;2.30;;
34920;SDS011;21128;50.016;20.002;2023-08-24T14:03:36;6.90;;;2.30;;
34920;SDS011;21128;50.016;20.002;2023-08-24T14:06:04;3.30;;;2.60;;
34920;SDS011;21128;50.016;20.002;2023-08-24T14:08:31;5.00;;;2.10;;
34920;SDS011;21128;50.016;20.002;2023-08-24T14:10:58;11.40;;;2.80;;
34920;SDS011;21128;50.016;20.002;2023-08-24T14:13:25;9.50;;;2.80;;
34920;SDS011;21128;50.016;20.002;2023-08-24T14:15:52;8.40;;;2.70;;
34920;SDS011;21128;50.016;20.002;2023-08-24T14:18:19;8.40;;;2.30;;
34920;SDS011;21128;50.016;20.002;2023-08-24T14:20:46;11.90;;;2.30;;
34920;SDS011;21128;50.016;20.002;2023-08-24T14:23:12;5.00;;;2.60;;
34920;SDS011;21128;50.016;20.002;2023-08-24T14:25:39;10.00;;;2.90;;
34920;SDS011;21128;50.016;20.002;2023-08-24T14:28:06;8.80;;;2.50;;
34920;SDS011;21128;50.016;20.002;2023-08-24T14:30:33;5.80;;;2.50;;
34920;SDS011;21128;50.016;20.002;2023-08-24T14:33:00;5.80;;;2.50;;
34920;SDS011;21128;50.016;20.002;2023-08-24T14:35:27;7.10;;;3.10;;
34920;SDS011;21128;50.016;20.002;2023-08-24T14:37:54;8.10;;;3.20;;
34920;SDS011;21128;50.016;20.002;2023-08-24T14:40:20;8.80;;;2.60;;
34920;SDS011;21128;50.016;20.002;2023-08-24T14:42:47;6.50;;;2.50;;